Stations météo

réclame
Mon MeteoGroup
Großer Arber, Allemagne (10791): Température de l'air & dewpoint: 19.11.2017 02:00:00 - 25.11.2017 02:00:00 (CET)Großer Arber, Allemagne (10791): Vitesse du vent & gusts: 19.11.2017 02:00:00 - 25.11.2017 02:00:00 (CET)Großer Arber, Allemagne (10791): Direction du vent: 19.11.2017 02:00:00 - 25.11.2017 02:00:00 (CET)Großer Arber, Allemagne (10791): visibility: 19.11.2017 02:00:00 - 25.11.2017 02:00:00 (CET)Großer Arber, Allemagne (10791): Ensoleillement: 19.11.2017 02:00:00 - 25.11.2017 02:00:00 (CET)Großer Arber, Allemagne (10791): Quantités de précipitations: 19.11.2017 02:00:00 - 25.11.2017 02:00:00 (CET)
Date & Time tt [°C] td [°C] ff [km/h] ff [knt] fx [km/h] fx [knt] dd vv [km] sd [min] rr [mm]
25.11.2017 02:00:00 2,8 2,7 24 13 37 20 SSW 11 0 0,0
25.11.2017 01:00:00 3,2 2,9 31 17 40 22 SW 11 0 0,0
25.11.2017 00:00:00 3,2 2,3 21 11 34 18 SSW 10 0 0,0
24.11.2017 23:00:00 3,7 1,9 27 15 36 20 SW 11 0 0,0
24.11.2017 22:00:00 3,8 2,3 26 14 31 17 SW 11 0 0,0
24.11.2017 21:00:00 3,7 1,4 26 14 39 21 SW 11 0 0,0
24.11.2017 20:00:00 3,9 0,0 27 15 36 19 SW 11 0 0,0
24.11.2017 19:00:00 4,3 -0,6 24 13 35 19 SW 11 0 0,0
24.11.2017 18:00:00 4,7 -0,7 24 13 39 21 SW 11 0 0,0
24.11.2017 17:00:00 5,2 -0,8 27 14 39 21 S 11 0 0,0
24.11.2017 16:00:00 5,4 -0,7 27 15 41 22 S 11 5 0,0
24.11.2017 15:00:00 5,3 -0,5 30 16 50 27 SSW 11 33 0,0
24.11.2017 14:00:00 5,3 -0,4 32 18 61 33 SSW 11 28 0,0
24.11.2017 13:00:00 4,5 -0,3 32 18 45 25 SSW 11 0 0,0
24.11.2017 12:00:00 4,4 -0,1 27 14 40 22 SSW 11 2 0,0
24.11.2017 11:00:00 4,2 0,3 28 15 40 22 S 11 31 0,0
24.11.2017 10:00:00 4,2 -1,4 29 16 42 23 S 11 43 0,0
24.11.2017 09:00:00 3,5 -1,5 31 17 45 24 S 11 0 0,0
24.11.2017 08:00:00 3,5 -1,5 28 15 47 25 S 10 0 0,0
24.11.2017 07:00:00 3,3 -1,0 29 15 43 23 SSW 11 0 0,0
24.11.2017 06:00:00 4,5 0,5 27 15 37 20 SSW 11 0 0,0
24.11.2017 05:00:00 4,4 0,6 26 14 36 19 SW 11 0 0,0
24.11.2017 04:00:00 4,6 1,0 29 16 41 22 WSW 10 0 0,0
24.11.2017 03:00:00 4,3 0,9 35 19 49 26 WSW 11 0 0,0
24.11.2017 02:00:00 3,9 1,0 36 19 49 26 W 11 0 0,0
24.11.2017 01:00:00 3,6 0,0 35 19 51 27 WSW 10 0 0,0
24.11.2017 00:00:00 4,2 0,8 36 19 54 29 WSW 11 0 0,0
23.11.2017 23:00:00 4,3 0,5 40 21 63 34 WSW 11 0 0,0
23.11.2017 22:00:00 4,3 -0,2 43 23 56 30 WSW 11 0 0,0
23.11.2017 21:00:00 3,5 -0,9 42 23 61 33 SW 11 0 0,0
23.11.2017 20:00:00 3,8 -1,1 45 24 56 30 SW 11 0 0,0
23.11.2017 19:00:00 4,9 -0,3 48 26 58 31 WSW 11 0 0,0
23.11.2017 18:00:00 5,1 0,3 39 21 59 32 WSW 11 0 0,0
23.11.2017 17:00:00 4,9 -0,6 41 22 67 36 WSW 11 6 0,0
23.11.2017 16:00:00 5,4 -0,6 44 24 66 35 WSW 10 34 0,0
23.11.2017 15:00:00 5,0 -1,0 50 27 65 35 W 11 55 0,0
23.11.2017 14:00:00 5,4 -2,0 40 22 51 27 WSW 11 38 0,0
23.11.2017 13:00:00 6,1 -3,8 34 18 47 26 SW 11 60 0,0
23.11.2017 12:00:00 5,7 -3,9 37 20 51 28 SW 11 60 0,0
23.11.2017 11:00:00 5,1 -4,6 21 11 36 19 SSW 11 60 0,0
23.11.2017 10:00:00 6,3 -5,9 24 13 40 21 SSW 11 60 0,0
23.11.2017 09:00:00 4,4 -4,5 32 17 39 21 SSW 10 51 0,0
23.11.2017 08:00:00 6,1 -5,9 31 17 40 22 SSW 11 0 0,0
23.11.2017 07:00:00 6,9 -6,6 27 15 35 19 S 11 0 0,0
23.11.2017 06:00:00 6,3 -6,0 25 14 36 20 SSW 11 0 0,0
23.11.2017 05:00:00 6,8 -6,1 32 17 39 21 SW 11 0 0,0
23.11.2017 04:00:00 6,1 -5,6 34 18 42 23 SSW 11 0 0,0
23.11.2017 03:00:00 5,9 -6,7 29 16 38 21 SSW 11 0 0,0
23.11.2017 02:00:00 5,9 -6,3 31 17 41 22 SSW 11 0 0,0
23.11.2017 01:00:00 5,5 -4,6 31 17 43 23 SSW 11 0 0,0
23.11.2017 00:00:00 5,3 -4,7 34 19 40 21 S 11 0 0,0
22.11.2017 23:00:00 4,5 -3,1 29 15 40 22 SSW 10 0 0,0
22.11.2017 22:00:00 3,8 -1,6 35 19 44 24 SSW 10 0 0,0
22.11.2017 21:00:00 3,1 -0,5 37 20 42 23 SSW 11 0 0,0
22.11.2017 20:00:00 3,1 -0,8 29 15 39 21 SW 10 0 0,0
22.11.2017 19:00:00 2,8 -0,8 33 18 43 23 SW 11 0 0,0
22.11.2017 18:00:00 2,9 -1,6 38 21 55 30 WSW 11 0 0,0
22.11.2017 17:00:00 3,3 -2,3 45 24 67 36 W 11 26 0,0
22.11.2017 16:00:00 3,1 -1,0 49 27 71 38 W 11 60 0,0
22.11.2017 15:00:00 3,4 -1,2 47 25 68 37 W 11 60 0,0
22.11.2017 14:00:00 3,3 -0,7 51 28 76 41 W 11 60 0,0
22.11.2017 13:00:00 2,6 -0,3 57 31 78 42 W 11 60 0,0
22.11.2017 12:00:00 2,4 -0,1 57 31 80 43 W 11 60 0,0
22.11.2017 11:00:00 1,6 0,9 55 30 77 42 WSW 10 60 0,0
22.11.2017 10:00:00 1,4 1,0 61 33 83 45 WSW 11 60 0,0
22.11.2017 09:00:00 0,7 0,7 62 34 78 42 WSW 3,4 33 0,0
22.11.2017 08:00:00 0,2 0,2 62 34 79 42 WSW 11 0 0,0
22.11.2017 07:00:00 0,1 0,1 63 34 79 43 WSW 1,1 0 0,0
22.11.2017 06:00:00 0,2 0,2 61 33 73 40 WSW 0,2 0 0,0
22.11.2017 05:00:00 0,3 0,3 61 33 86 47 W 0,1 0 0,0
22.11.2017 04:00:00 0,4 0,4 71 38 92 50 W 0,2 0 0,0
22.11.2017 03:00:00 0,4 0,4 72 39 94 51 W 0,1 0 0,0
22.11.2017 02:00:00 0,3 0,3 61 33 92 50 WSW 0,1 0 0,0
22.11.2017 01:00:00 0,7 0,7 59 32 82 44 WSW 0,1 0 0,0
22.11.2017 00:00:00 0,7 0,7 57 31 77 42 WSW 0,1 0 0,0
21.11.2017 23:00:00 0,6 0,6 59 32 78 42 WSW 0,1 0 0,0
21.11.2017 22:00:00 0,4 0,4 55 30 84 45 W 0,1 0 0,0
21.11.2017 21:00:00 0,2 0,2 61 33 78 42 W 0,1 0 0,3
21.11.2017 20:00:00 0,2 - 49 26 71 38 WSW 0,1 0 0,1
21.11.2017 19:00:00 0,2 - 54 29 72 39 WSW 0,1 0 0,0
21.11.2017 18:00:00 0,0 - 50 27 71 38 WSW 0,1 0 0,1
21.11.2017 17:00:00 -0,1 - 49 27 64 35 WSW 0,1 0 0,3
21.11.2017 16:00:00 -0,1 - 47 25 73 40 WSW 0,1 0 0,3
21.11.2017 15:00:00 -0,1 -0,1 54 29 74 40 W 0,1 0 0,9
21.11.2017 14:00:00 -0,3 -0,3 47 25 67 36 WSW 0,1 0 0,5
21.11.2017 13:00:00 -0,4 -0,4 54 29 76 41 W 0,1 0 0,6
21.11.2017 12:00:00 -0,6 -0,6 46 25 68 37 WSW 0,1 0 1,0
21.11.2017 11:00:00 -0,7 -0,7 51 28 72 39 W 0,1 0 0,8
21.11.2017 10:00:00 -0,7 -0,7 56 30 77 41 W 0,1 0 0,2
21.11.2017 09:00:00 -0,9 -0,9 57 31 72 39 W 0,1 0 0,0
21.11.2017 08:00:00 -1,3 -1,3 51 28 85 46 W 0,1 0 0,9
21.11.2017 07:00:00 -1,2 -1,2 58 31 83 45 W 0,1 0 0,0
21.11.2017 06:00:00 -1,5 -1,5 51 28 75 40 W 0,1 0 0,4
21.11.2017 05:00:00 -1,7 -1,7 58 32 77 42 W 0,1 0 0,1
21.11.2017 04:00:00 -1,8 -1,8 62 34 93 50 W 0,1 0 0,3
21.11.2017 03:00:00 -2,3 -2,3 69 37 85 46 W 0,1 0 0,5
21.11.2017 02:00:00 -2,7 -2,7 62 34 81 44 W 0,1 0 0,6
21.11.2017 01:00:00 -3,3 -3,3 54 29 71 38 WSW 0,1 0 0,8
21.11.2017 00:00:00 -4,0 -4,0 58 31 75 41 WSW 0,1 0 1,1
20.11.2017 23:00:00 -4,8 -4,8 44 24 56 31 SW 0,2 0 1,6
20.11.2017 22:00:00 -5,0 -5,0 46 25 59 32 SW 0,1 0 1,2
20.11.2017 21:00:00 -5,2 -5,2 46 25 66 36 SW 0,1 0 0,7
20.11.2017 20:00:00 -5,6 -5,6 39 21 61 33 WSW 0,1 0 0,5
20.11.2017 19:00:00 -5,5 -5,5 39 21 55 30 WSW 0,1 0 0,5
20.11.2017 18:00:00 -5,5 -5,6 40 22 61 33 WSW 0,1 0 0,7
20.11.2017 17:00:00 -5,7 -5,7 43 23 67 36 WSW 0,2 0 0,3
20.11.2017 16:00:00 -5,5 -5,5 43 23 61 33 W 0,1 0 1,2
20.11.2017 15:00:00 -5,2 -5,2 43 23 61 33 W 0,1 0 0,3
20.11.2017 14:00:00 -4,8 -4,8 41 22 69 37 W 0,1 0 0,1
20.11.2017 13:00:00 -4,7 -4,7 34 18 64 34 W 0,1 0 0,0
20.11.2017 12:00:00 -4,5 -4,5 50 27 66 35 W 0,1 0 0,6
20.11.2017 11:00:00 -4,2 -4,2 46 25 72 39 W 0,1 0 0,1
20.11.2017 10:00:00 -4,2 -4,2 51 27 71 38 W 0,1 0 0,0
20.11.2017 09:00:00 -4,3 -4,3 46 25 73 40 W 0,1 0 0,0
20.11.2017 08:00:00 -4,5 -4,5 48 26 77 42 WNW 0,1 0 0,2
20.11.2017 07:00:00 -4,7 -4,7 39 21 82 45 WNW 0,1 0 0,0
20.11.2017 06:00:00 -4,7 -4,7 54 29 88 47 W 0,1 0 0,0
20.11.2017 05:00:00 -4,5 -4,5 49 26 77 42 W 0,1 0 0,0
20.11.2017 04:00:00 -4,5 -4,5 54 29 81 44 W 0,1 0 0,0
20.11.2017 03:00:00 -4,6 -4,6 49 27 85 46 W 0,1 0 0,0
20.11.2017 02:00:00 -4,8 -4,8 61 33 86 47 W 0,2 0 0,0
20.11.2017 01:00:00 -4,5 -4,5 60 32 86 47 W 0,1 0 0,0
20.11.2017 00:00:00 -4,5 -4,5 52 28 86 47 W 0,1 0 0,2
19.11.2017 23:00:00 -4,1 -4,1 47 26 88 48 W 0,1 0 0,7
19.11.2017 22:00:00 -4,1 -4,1 48 26 81 44 W 0,1 0 0,0
19.11.2017 21:00:00 -4,1 -4,1 52 28 85 46 W 0,1 0 2,6
19.11.2017 20:00:00 -4,1 -4,1 50 27 86 46 W 0,1 0 0,2
19.11.2017 19:00:00 -4,2 -4,2 55 30 81 44 W 0,1 0 0,1
19.11.2017 18:00:00 -4,4 -4,4 49 26 74 40 W 0,1 0 0,0
19.11.2017 17:00:00 -4,5 -4,5 48 26 74 40 W 0,1 0 0,0
19.11.2017 16:00:00 -4,8 -4,8 50 27 72 39 W 0,1 0 0,3
19.11.2017 15:00:00 -4,8 -4,8 40 21 67 36 W 0,1 0 0,3
19.11.2017 14:00:00 -4,8 -4,8 40 21 60 33 WNW 0,1 0 0,0
19.11.2017 13:00:00 -5,0 -5,0 41 22 56 31 W 0,1 0 0,3
19.11.2017 12:00:00 -4,8 -4,9 32 18 54 29 WNW 0,2 1 0,2
19.11.2017 11:00:00 -4,8 -4,9 32 17 57 31 WNW 0,2 0 0,3
19.11.2017 10:00:00 -4,7 -4,7 42 23 61 33 W 0,2 0 0,1
19.11.2017 09:00:00 -4,6 -4,6 39 21 68 37 W 0,2 0 0,4
19.11.2017 08:00:00 -4,8 -4,8 48 26 65 35 W 0,2 0 0,7
19.11.2017 07:00:00 -4,8 -4,8 50 27 66 36 W 0,2 0 1,2
19.11.2017 06:00:00 -4,8 -4,8 45 24 70 38 WSW 0,1 0 2,9
19.11.2017 05:00:00 -4,9 -4,9 46 25 72 39 WSW 0,1 0 2,6
19.11.2017 04:00:00 -4,8 -4,8 49 26 64 35 WSW 0,1 0 1,9
19.11.2017 03:00:00 -4,9 -4,9 47 25 65 35 WSW 0,1 0 1,8
19.11.2017 02:00:00 -4,9 -4,9 49 27 68 37 WSW 0,1 0 0,7

tt = Température de l'air
td = dewpoint
ff = Vitesse du vent
fx = gusts
dd = Direction du vent
vv = visibility
sd = Ensoleillement
rr = Quantités de précipitations

stations d'obs. à proximité